Time;durP1;ratioP1;P1;durP2;ratioP2;P2;SDS_P1;SDS_P2;PMS_P1;PMS_P2;Temp;Humidity;BMP_temperature;BMP_pressure;BME280_temperature;BME280_humidity;BME280_pressure;Samples;Min_cycle;Max_cycle;Signal;HPM_P1;HPM_P2
2022/09/19 00:01:32;;;;;;;3.95;1.13;;;;;;;9.64;100.00;101881.56;4942354;28;20046;-86
2022/09/19 00:04:02;;;;;;;3.88;1.20;;;;;;;9.64;100.00;101895.50;4957236;28;20142;-86
2022/09/19 00:06:32;;;;;;;4.05;1.20;;;;;;;9.24;100.00;101840.31;4956830;28;20051;-86
2022/09/19 00:08:59;;;;;;;6.07;1.73;;;;;;;8.99;100.00;101858.09;4954656;28;20101;-86
2022/09/19 00:11:26;;;;;;;5.15;1.88;;;;;;;8.86;100.00;101896.56;4956442;28;20069;-86
2022/09/19 00:13:56;;;;;;;11.75;2.00;;;;;;;8.60;100.00;101848.13;4965821;28;20407;-87
2022/09/19 00:16:31;;;;;;;4.40;1.77;;;;;;;8.83;100.00;101896.59;4954696;28;20047;-87
2022/09/19 00:19:00;;;;;;;4.72;1.60;;;;;;;8.53;100.00;101878.66;4950792;28;20062;-87
2022/09/19 00:21:35;;;;;;;6.65;1.77;;;;;;;8.60;100.00;101894.25;4957013;28;20051;-87
2022/09/19 00:26:48;;;;;;;7.38;1.95;;;;;;;8.54;100.00;101898.66;4972975;28;20053;-86
2022/09/19 00:29:16;;;;;;;5.82;1.98;;;;;;;8.57;100.00;101896.88;4973727;28;20043;-87
2022/09/19 00:31:44;;;;;;;9.02;2.10;;;;;;;8.54;100.00;101900.41;4956866;28;20385;-87
2022/09/19 00:34:14;;;;;;;4.50;1.70;;;;;;;8.43;100.00;101881.38;4956673;28;20054;-87
2022/09/19 00:36:42;;;;;;;5.93;1.60;;;;;;;8.51;100.00;101879.53;4961618;28;20107;-87
2022/09/19 00:39:11;;;;;;;4.68;1.50;;;;;;;8.72;100.00;101874.09;4940756;28;20077;-87
2022/09/19 00:41:38;;;;;;;5.90;1.73;;;;;;;8.61;100.00;101849.84;4955905;28;20047;-87
2022/09/19 00:44:25;;;;;;;4.75;1.42;;;;;;;9.10;100.00;101892.78;4955567;28;20058;-88
2022/09/19 00:46:55;;;;;;;4.10;1.38;;;;;;;9.19;100.00;101891.78;4955936;28;20054;-87
2022/09/19 00:49:25;;;;;;;2.85;1.20;;;;;;;9.09;100.00;101883.22;4943345;28;20065;-87
2022/09/19 00:51:56;;;;;;;4.07;1.15;;;;;;;9.16;100.00;101886.63;4955452;28;20109;-88
2022/09/19 00:54:33;;;;;;;5.65;1.35;;;;;;;8.91;100.00;101858.22;4955594;28;20050;-88
2022/09/19 00:57:03;;;;;;;4.22;1.13;;;;;;;8.74;100.00;101851.41;4972026;28;20047;-87
2022/09/19 00:59:35;;;;;;;4.68;1.40;;;;;;;9.11;100.00;101889.28;4954081;28;20050;-87
2022/09/19 01:02:04;;;;;;;3.78;1.67;;;;;;;9.18;100.00;101890.06;4955649;28;20056;-87
2022/09/19 01:04:35;;;;;;;2.55;1.20;;;;;;;9.25;100.00;101892.56;4971385;28;20051;-87
2022/09/19 01:07:24;;;;;;;3.80;1.20;;;;;;;9.38;100.00;101887.19;4973793;28;20051;-88
2022/09/19 01:09:57;;;;;;;6.13;1.13;;;;;;;9.31;100.00;101892.50;4951951;29;20102;-87
2022/09/19 01:13:09;;;;;;;5.82;1.30;;;;;;;8.84;100.00;101893.97;4955507;28;20441;-88
2022/09/19 01:16:04;;;;;;;7.03;1.50;;;;;;;8.61;100.00;101896.00;4969424;28;20485;-88
2022/09/19 01:19:02;;;;;;;4.78;1.67;;;;;;;8.41;100.00;101891.81;4946531;29;20047;-88
2022/09/19 01:22:03;;;;;;;4.55;1.52;;;;;;;8.10;100.00;101880.78;4962310;28;20134;-88
2022/09/19 01:24:49;;;;;;;3.25;1.35;;;;;;;8.15;100.00;101895.53;4955980;28;20113;-88
2022/09/19 01:27:44;;;;;;;7.55;1.60;;;;;;;8.24;100.00;101894.56;4955446;28;20097;-88
2022/09/19 01:30:13;;;;;;;5.95;1.60;;;;;;;8.18;100.00;101865.94;4956531;28;20055;-88
2022/09/19 01:33:04;;;;;;;6.03;1.70;;;;;;;7.76;100.00;101860.22;4943079;28;20051;-88
2022/09/19 01:35:37;;;;;;;3.90;1.40;;;;;;;8.10;100.00;101892.09;4956031;28;20481;-87
2022/09/19 01:38:10;;;;;;;4.72;1.70;;;;;;;8.32;100.00;101887.53;4954302;28;20102;-87
2022/09/19 01:40:37;;;;;;;4.45;1.50;;;;;;;8.30;100.00;101881.44;4971349;28;20058;-88
2022/09/19 01:43:11;;;;;;;4.38;1.30;;;;;;;8.28;100.00;101877.13;4972982;28;20051;-88
2022/09/19 01:45:39;;;;;;;3.35;1.20;;;;;;;8.28;100.00;101864.94;4948213;28;20047;-88
2022/09/19 01:48:22;;;;;;;4.18;1.40;;;;;;;8.50;100.00;101883.91;4952905;28;20050;-88
2022/09/19 01:50:56;;;;;;;6.68;1.63;;;;;;;8.54;100.00;101889.97;4945600;29;20540;-86
2022/09/19 01:53:46;;;;;;;5.10;1.63;;;;;;;8.67;100.00;101882.84;4971025;28;20121;-86
2022/09/19 01:56:21;;;;;;;3.55;1.20;;;;;;;8.80;100.00;101867.91;4967833;28;20604;-86
2022/09/19 01:59:07;;;;;;;4.32;1.48;;;;;;;8.91;100.00;101874.72;4955106;28;20047;-86
2022/09/19 02:01:58;;;;;;;5.18;1.67;;;;;;;8.94;100.00;101879.03;4953798;28;20054;-86
2022/09/19 02:04:41;;;;;;;5.28;1.33;;;;;;;8.59;100.00;101877.72;4950886;28;20047;-86
2022/09/19 02:07:39;;;;;;;7.18;1.52;;;;;;;8.08;100.00;101817.34;4956081;28;20050;-86
2022/09/19 02:10:13;;;;;;;3.03;1.30;;;;;;;8.49;100.00;101890.00;4955639;28;20043;-86
2022/09/19 02:12:42;;;;;;;5.47;1.92;;;;;;;8.44;100.00;101867.44;4959482;28;20054;-86
2022/09/19 02:15:12;;;;;;;5.47;1.50;;;;;;;8.51;100.00;101884.78;4958985;28;20054;-87
2022/09/19 02:17:52;;;;;;;4.57;1.50;;;;;;;8.35;100.00;101882.28;4958301;28;20612;-86
2022/09/19 02:20:32;;;;;;;5.45;1.60;;;;;;;8.34;100.00;101879.72;4959102;28;20059;-86
2022/09/19 02:23:22;;;;;;;7.70;1.80;;;;;;;8.45;100.00;101883.09;4959868;28;20421;-86
2022/09/19 02:25:53;;;;;;;3.78;1.40;;;;;;;8.30;100.00;101883.19;4964207;28;20059;-86
2022/09/19 02:28:25;;;;;;;5.22;1.10;;;;;;;8.27;100.00;101868.47;4975546;28;20047;-87
2022/09/19 02:30:52;;;;;;;4.27;1.57;;;;;;;8.34;100.00;101874.50;4976542;28;20058;-86
2022/09/19 02:33:19;;;;;;;2.92;1.20;;;;;;;8.53;100.00;101870.84;4958456;28;20296;-86
2022/09/19 02:35:52;;;;;;;2.53;1.20;;;;;;;8.77;100.00;101878.41;4957993;28;20097;-86
2022/09/19 02:38:24;;;;;;;3.42;1.20;;;;;;;8.78;100.00;101877.50;4958661;28;20054;-87
2022/09/19 02:41:01;;;;;;;2.42;1.20;;;;;;;8.80;100.00;101867.91;4958368;28;20086;-87
2022/09/19 02:43:42;;;;;;;3.70;1.30;;;;;;;8.90;100.00;101877.34;4947025;28;20055;-88
2022/09/19 02:46:20;;;;;;;3.38;1.20;;;;;;;8.92;100.00;101867.75;4946393;28;20046;-87
2022/09/19 02:48:57;;;;;;;5.32;1.20;;;;;;;8.86;100.00;101839.97;4964399;28;20059;-88
2022/09/19 02:51:34;;;;;;;2.50;1.10;;;;;;;8.95;100.00;101862.50;4959092;28;20050;-87
2022/09/19 02:54:08;;;;;;;3.40;1.38;;;;;;;8.77;100.00;101875.78;4957525;28;20055;-87
2022/09/19 02:56:41;;;;;;;3.55;1.20;;;;;;;8.38;100.00;101838.78;4943859;28;20106;-87
2022/09/19 02:59:13;;;;;;;4.28;1.60;;;;;;;8.06;100.00;101847.81;4969189;28;20059;-87
2022/09/19 03:01:44;;;;;;;4.97;1.50;;;;;;;7.93;100.00;101874.00;4958469;28;20051;-87
2022/09/19 03:04:16;;;;;;;4.95;1.30;;;;;;;7.54;100.00;101843.84;4954954;28;20138;-87
2022/09/19 03:06:57;;;;;;;4.05;1.60;;;;;;;7.49;100.00;101887.31;4975600;28;20070;-87
2022/09/19 03:09:28;;;;;;;4.45;1.40;;;;;;;7.29;100.00;101848.38;4975331;28;20054;-87
2022/09/19 03:12:05;;;;;;;5.90;1.70;;;;;;;7.13;100.00;101839.78;4975166;28;20054;-85
2022/09/19 03:14:32;;;;;;;3.63;1.40;;;;;;;7.18;100.00;101877.94;4975806;28;20063;-86
2022/09/19 03:17:01;;;;;;;4.40;1.77;;;;;;;6.99;100.00;101842.47;4957749;28;20046;-86
2022/09/19 03:19:30;;;;;;;4.18;1.60;;;;;;;7.15;100.00;101878.00;4974589;28;20054;-86
2022/09/19 03:21:58;;;;;;;4.35;1.58;;;;;;;7.23;100.00;101877.94;4957259;28;20062;-86
2022/09/19 03:24:26;;;;;;;3.97;1.33;;;;;;;6.94;100.00;101855.53;4957586;28;20101;-86
2022/09/19 03:26:53;;;;;;;4.47;1.60;;;;;;;6.75;100.00;101852.13;4957635;28;20437;-85
2022/09/19 03:29:19;;;;;;;4.93;1.50;;;;;;;6.85;100.00;101863.34;4954113;28;20062;-85
2022/09/19 03:31:50;;;;;;;4.25;1.20;;;;;;;7.22;100.00;101884.00;4956337;28;20429;-87
2022/09/19 03:34:18;;;;;;;4.68;1.30;;;;;;;7.50;100.00;101870.81;4957735;28;20054;-88
2022/09/19 03:36:46;;;;;;;3.88;1.30;;;;;;;7.51;100.00;101869.97;4973210;28;20118;-88
2022/09/19 03:39:13;;;;;;;3.63;1.15;;;;;;;7.64;100.00;101866.38;4952451;28;20097;-87
2022/09/19 03:41:40;;;;;;;2.90;1.35;;;;;;;7.75;100.00;101848.91;4957174;28;20057;-86
2022/09/19 03:44:07;;;;;;;3.15;1.27;;;;;;;7.68;100.00;101859.41;4957281;28;20460;-84
2022/09/19 03:46:35;;;;;;;5.25;1.50;;;;;;;7.52;100.00;101858.66;4957194;28;20055;-86
2022/09/19 03:49:03;;;;;;;2.85;1.10;;;;;;;7.58;100.00;101867.28;4951173;28;20058;-86
2022/09/19 03:51:32;;;;;;;5.18;1.40;;;;;;;7.80;100.00;101894.06;4956655;28;20055;-86
2022/09/19 03:53:58;;;;;;;3.97;1.20;;;;;;;7.68;100.00;101872.44;4952869;28;20055;-87
2022/09/19 03:56:26;;;;;;;2.92;1.20;;;;;;;7.62;100.00;101869.88;4949575;28;20801;-87
2022/09/19 03:58:53;;;;;;;4.72;1.90;;;;;;;7.64;100.00;101883.78;4956536;28;20535;-87
2022/09/19 04:01:20;;;;;;;4.88;1.13;;;;;;;7.35;100.00;101841.41;4956439;28;20062;-85
2022/09/19 04:03:49;;;;;;;4.82;1.10;;;;;;;7.55;100.00;101884.69;4972686;28;20170;-85
2022/09/19 04:06:17;;;;;;;3.38;1.10;;;;;;;7.73;100.00;101887.16;4957420;28;20043;-86
2022/09/19 04:08:43;;;;;;;2.97;1.20;;;;;;;7.84;100.00;101891.44;4953299;28;20547;-85
2022/09/19 04:11:11;;;;;;;2.88;1.10;;;;;;;7.85;100.00;101880.16;4955352;28;20043;-85
2022/09/19 04:13:38;;;;;;;4.25;1.00;;;;;;;7.53;100.00;101848.22;4957526;28;20046;-88
2022/09/19 04:16:06;;;;;;;5.13;1.30;;;;;;;7.44;100.00;101863.91;4973342;28;20456;-88
2022/09/19 04:18:34;;;;;;;2.25;1.10;;;;;;;7.26;100.00;101888.34;4955528;28;20043;-85
2022/09/19 04:21:03;;;;;;;3.08;1.35;;;;;;;7.15;100.00;101870.19;4960856;28;20059;-86
2022/09/19 04:23:30;;;;;;;4.45;1.30;;;;;;;7.25;100.00;101881.41;4972534;28;20078;-85
2022/09/19 04:25:57;;;;;;;3.35;1.38;;;;;;;7.30;100.00;101879.63;4965474;28;20363;-88
2022/09/19 04:28:24;;;;;;;4.45;1.70;;;;;;;7.43;100.00;101876.97;4947561;28;20051;-88
2022/09/19 04:30:51;;;;;;;4.35;1.27;;;;;;;7.44;100.00;101892.59;4947323;28;20054;-88
2022/09/19 04:33:18;;;;;;;4.00;1.20;;;;;;;7.01;100.00;101844.19;4942431;28;20074;-88
2022/09/19 04:35:45;;;;;;;3.53;1.30;;;;;;;6.96;100.00;101839.91;4956665;28;20089;-87
2022/09/19 04:38:17;;;;;;;2.35;1.20;;;;;;;7.46;100.00;101888.22;4972672;28;20134;-88
2022/09/19 04:40:46;;;;;;;4.30;1.40;;;;;;;7.37;100.00;101877.88;4973911;28;20051;-88
2022/09/19 04:43:18;;;;;;;2.35;1.15;;;;;;;7.28;100.00;101867.47;4943094;28;20486;-88
2022/09/19 04:45:48;;;;;;;3.90;1.23;;;;;;;6.94;100.00;101850.31;4950670;28;20078;-88
2022/09/19 04:48:16;;;;;;;5.85;1.60;;;;;;;7.34;100.00;101907.41;4946732;28;20375;-88
2022/09/19 04:50:45;;;;;;;4.68;1.40;;;;;;;7.35;100.00;101903.94;4972207;28;20050;-88
2022/09/19 04:53:13;;;;;;;3.10;1.30;;;;;;;7.27;100.00;101864.00;4956255;28;20059;-88
2022/09/19 04:55:40;;;;;;;5.13;1.33;;;;;;;7.48;100.00;101891.69;4973159;28;20055;-87
2022/09/19 04:58:07;;;;;;;4.13;1.30;;;;;;;7.34;100.00;101883.94;4953647;28;20101;-88
2022/09/19 05:00:39;;;;;;;3.03;1.42;;;;;;;7.26;100.00;101898.78;4973334;28;20536;-88
2022/09/19 05:03:08;;;;;;;4.23;1.67;;;;;;;7.20;100.00;101898.78;4943889;28;20051;-87
2022/09/19 05:05:36;;;;;;;3.40;1.40;;;;;;;7.07;100.00;101894.53;4956088;28;20395;-86
2022/09/19 05:08:04;;;;;;;4.15;1.38;;;;;;;7.12;100.00;101906.66;4952242;28;20050;-87
2022/09/19 05:10:32;;;;;;;3.28;1.33;;;;;;;7.14;100.00;101914.47;4956144;28;20456;-87
2022/09/19 05:12:59;;;;;;;2.83;1.35;;;;;;;7.21;100.00;101909.19;4956358;28;20051;-86
2022/09/19 05:15:26;;;;;;;2.53;1.15;;;;;;;6.96;100.00;101882.41;4956464;28;20468;-87
2022/09/19 05:17:55;;;;;;;2.80;1.30;;;;;;;6.63;100.00;101892.06;4955243;28;20039;-86
2022/09/19 05:20:26;;;;;;;3.80;1.50;;;;;;;6.83;100.00;101918.03;4957162;28;20548;-86
2022/09/19 05:22:58;;;;;;;5.80;1.58;;;;;;;6.92;100.00;101895.44;4956337;28;20054;-87
2022/09/19 05:25:30;;;;;;;4.72;1.60;;;;;;;6.75;100.00;101872.09;4956452;28;20072;-87
2022/09/19 05:27:57;;;;;;;4.10;1.55;;;;;;;6.61;100.00;101903.34;4951160;28;20497;-88
2022/09/19 05:30:26;;;;;;;4.00;1.38;;;;;;;6.28;100.00;101876.53;4955904;28;20047;-87
2022/09/19 05:32:52;;;;;;;6.35;1.40;;;;;;;6.31;100.00;101862.66;4952164;29;20051;-88
2022/09/19 05:35:20;;;;;;;4.57;1.60;;;;;;;6.43;100.00;101873.91;4956876;28;20054;-88
2022/09/19 05:37:47;;;;;;;3.47;1.58;;;;;;;6.69;100.00;101882.50;4953546;29;20047;-86
2022/09/19 05:40:14;;;;;;;4.50;1.50;;;;;;;6.80;100.00;101914.59;4948210;28;20059;-85
2022/09/19 05:42:42;;;;;;;3.53;1.58;;;;;;;6.50;100.00;101892.09;4957415;28;20082;-86
2022/09/19 05:45:10;;;;;;;3.17;1.50;;;;;;;6.58;100.00;101900.75;4957823;28;20129;-86
2022/09/19 05:47:39;;;;;;;3.03;1.25;;;;;;;6.65;100.00;101853.00;4956545;28;20046;-86
2022/09/19 05:50:08;;;;;;;2.10;1.10;;;;;;;6.89;100.00;101911.94;4968537;28;20134;-87
2022/09/19 05:55:24;;;;;;;4.22;1.75;;;;;;;6.24;100.00;101849.66;4977638;28;20055;-85
2022/09/19 05:57:56;;;;;;;3.83;1.40;;;;;;;6.14;100.00;101828.88;4976585;28;20097;-88
2022/09/19 06:00:26;;;;;;;7.32;1.60;;;;;;;6.34;100.00;101834.03;4960822;28;20502;-86
2022/09/19 06:03:00;;;;;;;3.28;1.40;;;;;;;6.78;100.00;101905.91;4960807;28;20043;-86
2022/09/19 06:05:32;;;;;;;4.32;1.50;;;;;;;6.71;100.00;101889.44;4951328;28;20174;-84
2022/09/19 06:07:59;;;;;;;4.82;1.65;;;;;;;6.89;100.00;101895.44;4957225;28;20444;-84
2022/09/19 06:10:27;;;;;;;4.60;1.60;;;;;;;6.65;100.00;101872.09;4950288;29;20047;-84
2022/09/19 06:12:54;;;;;;;4.53;1.77;;;;;;;6.53;100.00;101874.72;4955560;28;20126;-87
2022/09/19 06:15:21;;;;;;;5.75;1.40;;;;;;;6.80;100.00;101879.00;4945447;28;20074;-86
2022/09/19 06:17:58;;;;;;;4.65;1.92;;;;;;;6.83;100.00;101886.81;4954643;28;20043;-87
2022/09/19 06:20:25;;;;;;;3.22;1.40;;;;;;;7.13;100.00;101916.19;4952638;29;20127;-87
2022/09/19 06:23:02;;;;;;;3.17;1.40;;;;;;;7.25;100.00;101868.38;4955674;28;20050;-87
2022/09/19 06:25:30;;;;;;;3.17;1.40;;;;;;;7.81;100.00;101915.81;4960521;28;20051;-87
2022/09/19 06:27:59;;;;;;;4.57;1.45;;;;;;;7.50;100.00;101879.50;4951486;28;20532;-87
2022/09/19 06:30:27;;;;;;;3.83;1.58;;;;;;;7.70;100.00;101915.00;4959999;28;20059;-87
2022/09/19 06:32:55;;;;;;;5.72;1.50;;;;;;;7.33;100.00;101824.03;4970565;28;20047;-87
2022/09/19 06:35:25;;;;;;;3.50;1.23;;;;;;;7.64;100.00;101876.81;4960901;28;20059;-87
2022/09/19 06:37:57;;;;;;;4.38;1.73;;;;;;;7.92;100.00;101906.16;4973219;28;20043;-86
2022/09/19 06:40:24;;;;;;;5.87;1.60;;;;;;;7.58;100.00;101869.91;4975831;28;20082;-86
2022/09/19 06:43:01;;;;;;;2.97;1.20;;;;;;;8.04;100.00;101901.69;4960281;28;20050;-86
2022/09/19 06:45:37;;;;;;;3.80;1.30;;;;;;;8.33;100.00;101914.50;4942766;29;20054;-87
2022/09/19 06:48:05;;;;;;;3.75;1.50;;;;;;;8.66;100.00;101934.22;4952788;28;20046;-87
2022/09/19 06:50:33;;;;;;;3.30;1.35;;;;;;;8.51;100.00;101922.16;4960564;28;20051;-87
2022/09/19 06:52:59;;;;;;;3.40;1.35;;;;;;;8.11;100.00;101875.56;4978372;28;20050;-87
2022/09/19 06:55:28;;;;;;;2.90;1.30;;;;;;;8.50;100.00;101933.50;4960210;28;20386;-86
2022/09/19 06:57:58;;;;;;;5.47;1.75;;;;;;;8.10;100.00;101863.38;4958520;28;20043;-86
2022/09/19 07:00:26;;;;;;;6.47;2.00;;;;;;;7.90;100.00;101842.72;4960404;28;20043;-86
2022/09/19 07:02:59;;;;;;;4.10;1.67;;;;;;;8.02;100.00;101896.53;4976817;28;20055;-86
2022/09/19 07:05:27;;;;;;;10.45;1.80;;;;;;;8.18;100.00;101892.03;4977208;28;20053;-86
2022/09/19 07:07:54;;;;;;;3.97;1.63;;;;;;;8.98;100.00;101933.00;4955574;28;20051;-87
2022/09/19 07:10:21;;;;;;;5.85;1.92;;;;;;;8.93;100.00;101899.09;4950004;28;20095;-87
2022/09/19 07:12:56;;;;;;;4.65;2.03;;;;;;;8.77;100.00;101878.41;4958038;28;20180;-87
2022/09/19 07:15:23;;;;;;;7.18;2.40;;;;;;;9.06;100.00;101910.22;4971921;28;20054;-86
2022/09/19 07:17:56;;;;;;;6.40;2.17;;;;;;;8.87;100.00;101893.06;4959202;28;20049;-86
2022/09/19 07:20:24;;;;;;;4.72;1.98;;;;;;;8.60;100.00;101865.53;4950185;28;20101;-86
2022/09/19 07:23:01;;;;;;;8.80;2.05;;;;;;;8.74;100.00;101924.53;4957553;28;20051;-87
2022/09/19 07:25:28;;;;;;;5.05;1.88;;;;;;;9.09;100.00;101909.34;4958979;28;20058;-87
2022/09/19 07:28:01;;;;;;;5.25;1.77;;;;;;;9.78;100.00;101936.28;4971486;28;20043;-86
2022/09/19 07:30:32;;;;;;;10.73;3.72;;;;;;;9.78;100.00;101891.81;4959646;28;20082;-88
2022/09/19 07:33:00;;;;;;;6.05;2.10;;;;;;;10.77;100.00;101881.34;4953960;28;20054;-84
2022/09/19 07:35:30;;;;;;;5.55;2.13;;;;;;;11.57;100.00;101925.97;4970451;28;20043;-86
2022/09/19 07:38:02;;;;;;;6.10;1.90;;;;;;;11.69;100.00;101874.97;4956158;28;20125;-88
2022/09/19 07:40:29;;;;;;;4.88;1.92;;;;;;;12.25;100.00;101874.47;4976022;28;20437;-87
2022/09/19 07:43:03;;;;;;;4.88;1.70;;;;;;;12.90;100.00;101907.72;4959244;28;20162;-87
2022/09/19 07:45:36;;;;;;;6.18;1.77;;;;;;;12.58;100.00;101866.59;4967542;28;20044;-87
2022/09/19 07:48:04;;;;;;;6.65;2.17;;;;;;;12.50;100.00;101899.19;4953495;28;20050;-86
2022/09/19 07:50:31;;;;;;;5.25;1.90;;;;;;;12.54;100.00;101881.56;4958590;28;20051;-88
2022/09/19 07:53:00;;;;;;;5.93;1.90;;;;;;;13.13;100.00;101932.47;4956686;28;20050;-85
2022/09/19 07:55:27;;;;;;;7.28;2.80;;;;;;;13.37;100.00;101936.16;4955532;28;20046;-86
2022/09/19 07:57:57;;;;;;;7.32;1.80;;;;;;;13.36;100.00;101881.84;4952955;28;20061;-86
2022/09/19 08:00:25;;;;;;;6.57;1.90;;;;;;;13.95;100.00;101929.09;4953268;28;20505;-88
2022/09/19 08:03:02;;;;;;;7.15;2.00;;;;;;;13.82;100.00;101896.16;4954490;28;20054;-86
2022/09/19 08:05:34;;;;;;;4.70;1.25;;;;;;;14.24;100.00;101916.72;4959788;28;20386;-88
2022/09/19 08:08:01;;;;;;;5.00;1.20;;;;;;;14.60;100.00;101913.75;4958059;28;20046;-87
2022/09/19 08:10:28;;;;;;;4.50;1.30;;;;;;;14.76;100.00;101878.00;4965991;28;20059;-90
2022/09/19 08:12:59;;;;;;;5.68;1.50;;;;;;;15.24;100.00;101942.16;4952700;28;20050;-86
2022/09/19 08:15:26;;;;;;;3.90;1.20;;;;;;;14.83;100.00;101888.31;4973847;28;20058;-87
2022/09/19 08:17:59;;;;;;;4.07;1.10;;;;;;;14.98;100.00;101943.16;4952506;28;20113;-87
2022/09/19 08:20:29;;;;;;;5.07;1.50;;;;;;;15.07;100.00;101934.88;4969622;28;20042;-86
2022/09/19 08:22:58;;;;;;;2.60;1.10;;;;;;;15.40;100.00;101937.13;4970040;28;20054;-87
2022/09/19 08:25:26;;;;;;;2.58;0.90;;;;;;;15.68;100.00;101920.22;4968533;28;20051;-88
2022/09/19 08:27:55;;;;;;;2.30;0.90;;;;;;;15.67;100.00;101934.34;4967674;28;20474;-85
2022/09/19 08:30:24;;;;;;;5.53;1.10;;;;;;;15.78;100.00;101941.88;4953663;28;20058;-86
2022/09/19 08:32:51;;;;;;;5.05;1.30;;;;;;;15.79;100.00;101917.19;4954842;29;20055;-87
2022/09/19 08:35:19;;;;;;;4.45;1.20;;;;;;;16.25;100.00;101946.97;4956686;28;20129;-85
2022/09/19 08:37:47;;;;;;;2.97;0.80;;;;;;;16.46;100.00;101942.56;4956236;28;20125;-87
2022/09/19 08:40:27;;;;;;;3.15;0.80;;;;;;;16.43;100.00;101946.19;4971514;28;20042;-86
2022/09/19 08:43:12;;;;;;;3.90;0.98;;;;;;;15.60;100.00;101954.84;4956576;28;20046;-86
2022/09/19 08:46:00;;;;;;;10.68;1.13;;;;;;;15.73;100.00;101952.59;4957321;28;20058;-85
2022/09/19 08:48:47;;;;;;;3.78;1.05;;;;;;;16.28;100.00;101946.84;4953618;28;20444;-87
2022/09/19 08:51:18;;;;;;;3.38;1.10;;;;;;;16.22;100.00;101895.13;4948321;28;20058;-86
2022/09/19 08:53:51;;;;;;;4.53;1.10;;;;;;;16.04;100.00;101902.06;4955358;28;20069;-86
2022/09/19 08:56:19;;;;;;;4.88;1.20;;;;;;;16.42;100.00;101920.69;4972030;28;20055;-86
2022/09/19 08:58:52;;;;;;;6.28;1.23;;;;;;;15.94;100.00;101908.63;4944117;28;20493;-86
2022/09/19 09:01:21;;;;;;;3.05;0.93;;;;;;;15.56;100.00;101909.25;4955734;28;20061;-85
2022/09/19 09:04:07;;;;;;;7.90;1.08;;;;;;;15.68;100.00;101954.53;4956457;28;20086;-86
2022/09/19 09:06:50;;;;;;;5.50;1.70;;;;;;;15.84;100.00;101958.31;4969917;28;20083;-87
2022/09/19 09:09:34;;;;;;;5.25;1.40;;;;;;;15.42;100.00;101939.72;4971726;28;20445;-86
2022/09/19 09:12:20;;;;;;;8.00;1.52;;;;;;;15.23;100.00;101905.25;4973637;28;20050;-86
2022/09/19 09:15:11;;;;;;;5.25;1.50;;;;;;;14.74;100.00;101937.81;4947093;28;20054;-86
2022/09/19 09:18:29;;;;;;;5.28;1.45;;;;;;;15.00;100.00;101943.94;4973221;28;20051;-86
2022/09/19 09:21:08;;;;;;;3.00;1.05;;;;;;;15.45;100.00;101956.31;4950782;28;20445;-87
2022/09/19 09:23:40;;;;;;;3.55;1.15;;;;;;;15.63;100.00;101960.00;4954631;28;20058;-87
2022/09/19 09:26:23;;;;;;;6.53;1.45;;;;;;;15.40;100.00;101918.66;4961758;28;20102;-86
2022/09/19 09:28:57;;;;;;;3.45;1.10;;;;;;;15.81;100.00;101950.53;4959792;28;20098;-87
2022/09/19 09:31:46;;;;;;;2.22;1.00;;;;;;;16.15;100.00;101912.16;4959516;28;20094;-88
2022/09/19 09:34:22;;;;;;;2.08;0.98;;;;;;;16.56;100.00;101920.09;4956837;28;20055;-85
2022/09/19 09:37:19;;;;;;;3.33;1.10;;;;;;;16.44;100.00;101894.19;4969088;28;20047;-88
2022/09/19 09:40:12;;;;;;;7.40;1.70;;;;;;;15.93;100.00;101970.28;4976469;28;20426;-87
2022/09/19 09:43:02;;;;;;;5.97;1.35;;;;;;;15.41;99.60;101919.53;4961039;28;20069;-88
2022/09/19 09:45:36;;;;;;;5.40;1.38;;;;;;;15.55;100.00;101944.47;4973475;28;20050;-87
2022/09/19 09:48:20;;;;;;;5.38;1.13;;;;;;;15.89;100.00;101947.56;4953256;28;20071;-87
2022/09/19 09:51:02;;;;;;;2.58;0.98;;;;;;;16.29;100.00;101962.66;4953196;28;20405;-87
2022/09/19 09:53:39;;;;;;;5.80;1.20;;;;;;;16.29;98.10;101908.94;4955051;28;20405;-87
2022/09/19 09:57:01;;;;;;;4.43;1.55;;;;;;;16.23;98.99;101906.53;4978421;28;20486;-86
2022/09/19 10:05:33;;;;;;;4.68;1.48;;;;;;;16.00;100.00;101924.22;4977157;28;20055;-88
2022/09/19 10:08:02;;;;;;;3.85;1.42;;;;;;;15.98;100.00;101946.34;4969853;28;20043;-87
2022/09/19 10:10:31;;;;;;;5.65;1.55;;;;;;;16.11;100.00;101937.84;4959757;28;20063;-87
2022/09/19 10:13:25;;;;;;;2.97;1.00;;;;;;;16.58;100.00;101957.03;4960173;28;20046;-88
2022/09/19 10:15:55;;;;;;;5.68;1.40;;;;;;;16.61;100.00;101943.66;4972391;28;20047;-86
2022/09/19 10:18:27;;;;;;;11.15;5.78;;;;;;;15.82;100.00;101851.91;4975176;28;20375;-87
2022/09/19 10:20:54;;;;;;;6.53;2.40;;;;;;;15.75;100.00;101924.38;4977189;28;20047;-86
2022/09/19 10:23:29;;;;;;;6.03;2.28;;;;;;;15.79;100.00;101947.06;4977512;28;20072;-87
2022/09/19 10:26:14;;;;;;;5.53;2.38;;;;;;;15.80;100.00;101890.72;4959953;28;20050;-88
2022/09/19 10:28:51;;;;;;;7.85;2.42;;;;;;;16.00;100.00;101933.94;4970621;28;20054;-87
2022/09/19 10:31:39;;;;;;;5.25;1.67;;;;;;;16.29;100.00;101959.16;4957185;28;20050;-87
2022/09/19 10:34:27;;;;;;;4.68;1.40;;;;;;;16.25;100.00;101952.25;4974229;28;20829;-87
2022/09/19 10:37:07;;;;;;;3.63;1.05;;;;;;;16.12;100.00;101939.56;4975723;28;20106;-87
2022/09/19 10:39:44;;;;;;;3.42;1.25;;;;;;;15.97;100.00;101931.41;4947876;28;20473;-85
2022/09/19 10:42:30;;;;;;;5.38;1.20;;;;;;;16.39;100.00;101957.81;4959559;28;20057;-87
2022/09/19 10:45:02;;;;;;;4.53;1.08;;;;;;;15.89;100.00;101915.88;4978989;28;20416;-87
2022/09/19 10:47:29;;;;;;;4.68;1.10;;;;;;;15.66;100.00;101907.09;4960337;28;20047;-85
2022/09/19 10:50:02;;;;;;;3.72;1.20;;;;;;;15.67;100.00;101932.56;4972595;28;20137;-87
2022/09/19 10:52:33;;;;;;;4.88;1.10;;;;;;;16.42;100.00;101968.25;4959847;28;20043;-87
2022/09/19 10:55:21;;;;;;;4.25;1.17;;;;;;;16.09;100.00;101922.97;4958376;28;20050;-88
2022/09/19 10:57:59;;;;;;;5.60;1.45;;;;;;;16.34;100.00;101970.34;4974979;28;20063;-86
2022/09/19 11:00:50;;;;;;;4.32;1.40;;;;;;;16.41;100.00;101952.47;4977975;28;20050;-88
2022/09/19 11:03:24;;;;;;;4.97;1.30;;;;;;;16.28;100.00;101923.91;4960490;28;20055;-88
2022/09/19 11:06:15;;;;;;;6.32;1.00;;;;;;;16.29;100.00;101972.38;4959866;28;20043;-88
2022/09/19 11:08:44;;;;;;;2.83;0.95;;;;;;;16.21;100.00;101925.09;4952375;28;20078;-87
2022/09/19 11:11:45;;;;;;;5.00;1.25;;;;;;;16.52;100.00;101952.88;4959751;28;20047;-87
2022/09/19 11:14:18;;;;;;;1.52;0.70;;;;;;;16.68;100.00;101961.00;4968138;28;20061;-87
2022/09/19 11:17:00;;;;;;;;;;;;;;;16.21;100.00;101958.59;4976457;28;20060;-87
2022/09/19 11:20:04;;;;;;;3.10;0.90;;;;;;;16.02;100.00;101956.72;4972040;28;19926;-88
2022/09/19 11:23:03;;;;;;;5.60;1.38;;;;;;;16.60;100.00;101948.09;4951476;28;20531;-85
2022/09/19 11:26:03;;;;;;;4.18;1.02;;;;;;;16.56;100.00;101949.16;4956038;28;20402;-86
2022/09/19 11:28:59;;;;;;;5.55;1.10;;;;;;;16.63;100.00;101913.59;4963995;28;20225;-87
2022/09/19 11:31:37;;;;;;;2.97;1.08;;;;;;;16.80;100.00;101941.06;4961585;28;20043;-86
2022/09/19 11:34:42;;;;;;;2.85;1.05;;;;;;;16.39;100.00;101909.38;4957053;28;20117;-86
2022/09/19 11:37:41;;;;;;;4.80;1.27;;;;;;;16.74;100.00;101946.66;4954012;28;20090;-85
2022/09/19 11:40:27;;;;;;;2.97;0.90;;;;;;;17.37;100.00;101939.38;4956423;28;20051;-86
2022/09/19 11:43:03;;;;;;;4.40;1.20;;;;;;;17.11;94.33;101940.59;4953773;28;20054;-86
2022/09/19 11:45:42;;;;;;;2.53;0.90;;;;;;;17.38;94.79;101945.53;4959305;28;20074;-86
2022/09/19 11:48:35;;;;;;;3.78;1.13;;;;;;;17.10;95.68;101907.09;4956888;28;20050;-86
2022/09/19 11:51:37;;;;;;;4.13;1.00;;;;;;;17.39;92.45;101937.50;4951845;28;20497;-88
2022/09/19 11:54:27;;;;;;;4.18;1.17;;;;;;;16.70;93.61;101878.03;4922372;29;20525;-87
2022/09/19 11:57:06;;;;;;;4.15;1.02;;;;;;;17.52;95.75;101939.56;4974983;28;20600;-86
2022/09/19 12:00:05;;;;;;;4.38;1.10;;;;;;;17.06;93.21;101872.00;4957976;28;20047;-87
2022/09/19 12:02:59;;;;;;;2.35;1.00;;;;;;;17.18;93.29;101938.53;4974767;28;20109;-87
2022/09/19 12:05:44;;;;;;;3.85;0.90;;;;;;;16.82;100.00;101937.44;4957424;28;20073;-86
2022/09/19 12:08:33;;;;;;;2.92;1.10;;;;;;;16.91;100.00;101933.56;4957391;28;20058;-86